sensor_id;sensor_type;location;lat;lon;timestamp;pressure;altitude;pressure_sealevel;temperature;humidity
71638;BME280;59485;43.542;-5.676;2023-02-22T00:04:33;101911.59;;;12.18;100.00
71638;BME280;59485;43.542;-5.676;2023-02-22T00:06:59;101916.44;;;12.16;100.00
71638;BME280;59485;43.542;-5.676;2023-02-22T00:09:35;101916.09;;;12.02;100.00
71638;BME280;59485;43.542;-5.676;2023-02-22T00:12:00;101920.41;;;12.05;100.00
71638;BME280;59485;43.542;-5.676;2023-02-22T00:14:26;101917.28;;;12.08;100.00
71638;BME280;59485;43.542;-5.676;2023-02-22T00:16:52;101913.50;;;12.09;100.00
71638;BME280;59485;43.542;-5.676;2023-02-22T00:21:57;101914.91;;;11.97;100.00
71638;BME280;59485;43.542;-5.676;2023-02-22T00:24:24;101912.47;;;12.02;100.00
71638;BME280;59485;43.542;-5.676;2023-02-22T00:26:51;101909.41;;;12.05;100.00
71638;BME280;59485;43.542;-5.676;2023-02-22T00:29:16;101916.09;;;11.94;100.00
71638;BME280;59485;43.542;-5.676;2023-02-22T00:31:42;101913.88;;;11.98;100.00
71638;BME280;59485;43.542;-5.676;2023-02-22T00:34:07;101914.91;;;11.97;100.00
71638;BME280;59485;43.542;-5.676;2023-02-22T00:36:43;101908.19;;;11.99;100.00
71638;BME280;59485;43.542;-5.676;2023-02-22T00:41:40;101910.59;;;11.94;100.00
71638;BME280;59485;43.542;-5.676;2023-02-22T00:44:05;101904.94;;;11.96;100.00
71638;BME280;59485;43.542;-5.676;2023-02-22T00:49:05;101913.19;;;11.88;100.00
71638;BME280;59485;43.542;-5.676;2023-02-22T00:51:39;101911.13;;;11.90;100.00
71638;BME280;59485;43.542;-5.676;2023-02-22T00:54:14;101911.63;;;11.85;100.00
71638;BME280;59485;43.542;-5.676;2023-02-22T00:59:20;101912.47;;;11.94;100.00
71638;BME280;59485;43.542;-5.676;2023-02-22T01:04:22;101901.81;;;11.99;100.00
71638;BME280;59485;43.542;-5.676;2023-02-22T01:07:08;101911.47;;;11.95;100.00
71638;BME280;59485;43.542;-5.676;2023-02-22T01:09:45;101909.03;;;12.00;100.00
71638;BME280;59485;43.542;-5.676;2023-02-22T01:12:23;101907.00;;;11.94;100.00
71638;BME280;59485;43.542;-5.676;2023-02-22T01:20:04;101921.06;;;11.83;100.00
71638;BME280;59485;43.542;-5.676;2023-02-22T01:22:50;101931.03;;;11.84;100.00
71638;BME280;59485;43.542;-5.676;2023-02-22T01:25:24;101920.03;;;11.84;100.00
71638;BME280;59485;43.542;-5.676;2023-02-22T01:27:50;101928.41;;;11.74;100.00
71638;BME280;59485;43.542;-5.676;2023-02-22T01:36:05;101921.53;;;11.54;100.00
71638;BME280;59485;43.542;-5.676;2023-02-22T02:47:53;101875.31;;;11.41;100.00
71638;BME280;59485;43.542;-5.676;2023-02-22T02:51:00;101875.16;;;11.43;100.00
71638;BME280;59485;43.542;-5.676;2023-02-22T02:53:37;101872.59;;;11.41;100.00
71638;BME280;59485;43.542;-5.676;2023-02-22T02:58:58;101872.91;;;11.46;100.00
71638;BME280;59485;43.542;-5.676;2023-02-22T03:11:50;101866.25;;;11.49;100.00
71638;BME280;59485;43.542;-5.676;2023-02-22T03:14:31;101865.06;;;11.51;100.00
71638;BME280;59485;43.542;-5.676;2023-02-22T03:23:33;101862.47;;;11.50;100.00
71638;BME280;59485;43.542;-5.676;2023-02-22T03:26:12;101856.44;;;11.46;100.00
71638;BME280;59485;43.542;-5.676;2023-02-22T03:28:39;101851.81;;;11.47;100.00
71638;BME280;59485;43.542;-5.676;2023-02-22T03:31:11;101854.06;;;11.51;100.00
71638;BME280;59485;43.542;-5.676;2023-02-22T03:33:53;101855.78;;;11.52;100.00
71638;BME280;59485;43.542;-5.676;2023-02-22T03:39:48;101852.00;;;11.53;100.00
71638;BME280;59485;43.542;-5.676;2023-02-22T03:44:53;101845.47;;;11.54;100.00
71638;BME280;59485;43.542;-5.676;2023-02-22T04:06:44;101851.66;;;11.56;100.00
71638;BME280;59485;43.542;-5.676;2023-02-22T05:41:44;101856.59;;;11.37;100.00
71638;BME280;59485;43.542;-5.676;2023-02-22T05:44:24;101872.03;;;11.38;100.00
71638;BME280;59485;43.542;-5.676;2023-02-22T05:57:43;101872.91;;;11.30;100.00
71638;BME280;59485;43.542;-5.676;2023-02-22T06:00:09;101875.13;;;11.26;100.00
71638;BME280;59485;43.542;-5.676;2023-02-22T06:05:38;101872.00;;;11.21;100.00
71638;BME280;59485;43.542;-5.676;2023-02-22T06:08:04;101864.81;;;11.20;100.00
71638;BME280;59485;43.542;-5.676;2023-02-22T06:10:30;101861.88;;;11.14;100.00
71638;BME280;59485;43.542;-5.676;2023-02-22T06:12:56;101873.72;;;11.14;100.00
71638;BME280;59485;43.542;-5.676;2023-02-22T06:15:22;101876.63;;;11.13;100.00
71638;BME280;59485;43.542;-5.676;2023-02-22T06:17:48;101875.25;;;11.09;100.00
71638;BME280;59485;43.542;-5.676;2023-02-22T06:25:25;101876.59;;;11.05;100.00
71638;BME280;59485;43.542;-5.676;2023-02-22T06:28:00;101877.13;;;11.00;100.00
71638;BME280;59485;43.542;-5.676;2023-02-22T06:30:25;101868.03;;;11.00;100.00
71638;BME280;59485;43.542;-5.676;2023-02-22T06:32:51;101870.78;;;11.00;100.00
71638;BME280;59485;43.542;-5.676;2023-02-22T06:35:17;101878.63;;;10.95;100.00
71638;BME280;59485;43.542;-5.676;2023-02-22T06:37:45;101871.75;;;10.90;100.00
71638;BME280;59485;43.542;-5.676;2023-02-22T06:40:10;101865.41;;;10.90;100.00
71638;BME280;59485;43.542;-5.676;2023-02-22T06:42:36;101871.22;;;10.87;100.00
71638;BME280;59485;43.542;-5.676;2023-02-22T06:45:02;101869.66;;;10.84;100.00
71638;BME280;59485;43.542;-5.676;2023-02-22T06:47:27;101871.22;;;10.87;100.00
71638;BME280;59485;43.542;-5.676;2023-02-22T06:49:53;101869.81;;;10.83;100.00
71638;BME280;59485;43.542;-5.676;2023-02-22T06:52:19;101863.16;;;10.85;100.00
71638;BME280;59485;43.542;-5.676;2023-02-22T06:54:44;101860.94;;;10.81;100.00
71638;BME280;59485;43.542;-5.676;2023-02-22T06:57:09;101871.34;;;10.77;100.00
71638;BME280;59485;43.542;-5.676;2023-02-22T06:59:35;101870.19;;;10.80;100.00
71638;BME280;59485;43.542;-5.676;2023-02-22T07:02:00;101860.94;;;10.81;100.00
71638;BME280;59485;43.542;-5.676;2023-02-22T07:04:35;101863.81;;;10.79;100.00
71638;BME280;59485;43.542;-5.676;2023-02-22T07:07:00;101866.56;;;10.79;100.00
71638;BME280;59485;43.542;-5.676;2023-02-22T07:09:26;101869.31;;;10.79;100.00
71638;BME280;59485;43.542;-5.676;2023-02-22T07:11:51;101872.38;;;10.76;100.00
71638;BME280;59485;43.542;-5.676;2023-02-22T07:14:16;101869.63;;;10.76;100.00
71638;BME280;59485;43.542;-5.676;2023-02-22T07:16:42;101867.06;;;10.75;100.00
71638;BME280;59485;43.542;-5.676;2023-02-22T07:19:07;101869.78;;;10.75;100.00
71638;BME280;59485;43.542;-5.676;2023-02-22T07:21:33;101872.38;;;10.76;100.00
71638;BME280;59485;43.542;-5.676;2023-02-22T07:23:58;101882.47;;;10.76;100.00
71638;BME280;59485;43.542;-5.676;2023-02-22T07:26:24;101877.84;;;10.76;100.00
71638;BME280;59485;43.542;-5.676;2023-02-22T07:28:50;101877.69;;;10.78;100.00
71638;BME280;59485;43.542;-5.676;2023-02-22T07:31:15;101873.94;;;10.79;100.00
71638;BME280;59485;43.542;-5.676;2023-02-22T07:33:42;101885.06;;;10.77;100.00
71638;BME280;59485;43.542;-5.676;2023-02-22T07:36:07;101887.66;;;10.79;100.00
71638;BME280;59485;43.542;-5.676;2023-02-22T07:38:33;101891.25;;;10.79;100.00
71638;BME280;59485;43.542;-5.676;2023-02-22T07:40:58;101894.16;;;10.78;100.00
71638;BME280;59485;43.542;-5.676;2023-02-22T07:43:24;101894.00;;;10.79;100.00
71638;BME280;59485;43.542;-5.676;2023-02-22T07:45:51;101898.47;;;10.80;100.00
71638;BME280;59485;43.542;-5.676;2023-02-22T07:48:17;101909.44;;;10.80;100.00
71638;BME280;59485;43.542;-5.676;2023-02-22T07:50:43;101909.78;;;10.85;100.00
71638;BME280;59485;43.542;-5.676;2023-02-22T07:53:13;101909.63;;;10.87;100.00
71638;BME280;59485;43.542;-5.676;2023-02-22T07:55:39;101905.53;;;10.91;100.00
71638;BME280;59485;43.542;-5.676;2023-02-22T07:58:05;101911.69;;;10.93;100.00
71638;BME280;59485;43.542;-5.676;2023-02-22T08:00:35;101910.84;;;10.93;100.00
71638;BME280;59485;43.542;-5.676;2023-02-22T08:03:01;101917.03;;;10.95;100.00
71638;BME280;59485;43.542;-5.676;2023-02-22T08:05:28;101921.19;;;10.99;100.00
71638;BME280;59485;43.542;-5.676;2023-02-22T08:07:56;101917.22;;;11.01;100.00
71638;BME280;59485;43.542;-5.676;2023-02-22T08:10:22;101906.78;;;11.05;100.00
71638;BME280;59485;43.542;-5.676;2023-02-22T08:12:49;101918.47;;;11.07;100.00
71638;BME280;59485;43.542;-5.676;2023-02-22T08:15:17;101917.09;;;11.11;100.00
71638;BME280;59485;43.542;-5.676;2023-02-22T08:17:43;101922.09;;;11.15;100.00
71638;BME280;59485;43.542;-5.676;2023-02-22T08:20:08;101921.75;;;11.18;100.00
71638;BME280;59485;43.542;-5.676;2023-02-22T08:22:34;101917.50;;;11.24;100.00
71638;BME280;59485;43.542;-5.676;2023-02-22T08:24:59;101917.84;;;11.29;100.00
71638;BME280;59485;43.542;-5.676;2023-02-22T08:27:25;101918.38;;;11.33;100.00
71638;BME280;59485;43.542;-5.676;2023-02-22T08:29:51;101921.66;;;11.36;100.00
71638;BME280;59485;43.542;-5.676;2023-02-22T08:32:17;101924.22;;;11.38;100.00
71638;BME280;59485;43.542;-5.676;2023-02-22T08:34:43;101922.16;;;11.40;100.00
71638;BME280;59485;43.542;-5.676;2023-02-22T08:37:09;101923.88;;;11.41;100.00
71638;BME280;59485;43.542;-5.676;2023-02-22T08:41:59;101923.38;;;11.45;100.00
71638;BME280;59485;43.542;-5.676;2023-02-22T08:44:24;101925.78;;;11.48;100.00
71638;BME280;59485;43.542;-5.676;2023-02-22T08:46:50;101915.50;;;11.50;100.00
71638;BME280;59485;43.542;-5.676;2023-02-22T08:49:15;101924.75;;;11.49;100.00
71638;BME280;59485;43.542;-5.676;2023-02-22T08:51:41;101925.09;;;11.46;100.00
71638;BME280;59485;43.542;-5.676;2023-02-22T08:54:06;101921.00;;;11.50;100.00
71638;BME280;59485;43.542;-5.676;2023-02-22T08:56:32;101922.72;;;11.51;100.00
71638;BME280;59485;43.542;-5.676;2023-02-22T08:58:57;101930.78;;;11.53;100.00
71638;BME280;59485;43.542;-5.676;2023-02-22T09:01:23;101928.91;;;11.53;100.00
71638;BME280;59485;43.542;-5.676;2023-02-22T09:03:53;101925.63;;;11.58;100.00
71638;BME280;59485;43.542;-5.676;2023-02-22T09:06:20;101918.59;;;11.63;100.00
71638;BME280;59485;43.542;-5.676;2023-02-22T09:08:45;101920.00;;;11.68;100.00
71638;BME280;59485;43.542;-5.676;2023-02-22T09:11:13;101917.78;;;11.71;100.00
71638;BME280;59485;43.542;-5.676;2023-02-22T09:13:38;101926.00;;;11.71;100.00
71638;BME280;59485;43.542;-5.676;2023-02-22T09:16:04;101922.78;;;11.76;100.00
71638;BME280;59485;43.542;-5.676;2023-02-22T09:18:29;101934.06;;;11.73;100.00
71638;BME280;59485;43.542;-5.676;2023-02-22T09:20:54;101926.22;;;11.78;100.00
71638;BME280;59485;43.542;-5.676;2023-02-22T09:23:20;101930.53;;;11.80;100.00
71638;BME280;59485;43.542;-5.676;2023-02-22T09:25:46;101931.03;;;11.84;100.00
71638;BME280;59485;43.542;-5.676;2023-02-22T09:28:11;101930.69;;;11.87;100.00
71638;BME280;59485;43.542;-5.676;2023-02-22T09:30:37;101928.28;;;11.92;100.00
71638;BME280;59485;43.542;-5.676;2023-02-22T09:33:03;101923.47;;;11.94;100.00
71638;BME280;59485;43.542;-5.676;2023-02-22T09:35:29;101925.72;;;11.98;100.00
71638;BME280;59485;43.542;-5.676;2023-02-22T09:37:55;101924.34;;;12.02;100.00
71638;BME280;59485;43.542;-5.676;2023-02-22T09:40:21;101927.78;;;12.05;100.00
71638;BME280;59485;43.542;-5.676;2023-02-22T09:45:32;101938.25;;;12.09;100.00
71638;BME280;59485;43.542;-5.676;2023-02-22T09:48:01;101934.47;;;12.10;100.00
71638;BME280;59485;43.542;-5.676;2023-02-22T09:50:37;101932.25;;;12.14;100.00
71638;BME280;59485;43.542;-5.676;2023-02-22T09:53:11;101932.75;;;12.17;100.00
71638;BME280;59485;43.542;-5.676;2023-02-22T09:55:43;101929.50;;;12.22;100.00
71638;BME280;59485;43.542;-5.676;2023-02-22T10:00:37;101929.66;;;12.28;100.00
71638;BME280;59485;43.542;-5.676;2023-02-22T10:05:36;101932.56;;;12.35;100.00
71638;BME280;59485;43.542;-5.676;2023-02-22T10:08:14;101929.28;;;12.39;100.00
71638;BME280;59485;43.542;-5.676;2023-02-22T10:10:40;101923.78;;;12.39;100.00
71638;BME280;59485;43.542;-5.676;2023-02-22T10:21:09;101921.38;;;12.45;100.00
71638;BME280;59485;43.542;-5.676;2023-02-22T10:28:38;101919.00;;;12.42;100.00
71638;BME280;59485;43.542;-5.676;2023-02-22T10:31:11;101914.84;;;12.46;100.00
71638;BME280;59485;43.542;-5.676;2023-02-22T10:33:45;101916.22;;;12.50;100.00
71638;BME280;59485;43.542;-5.676;2023-02-22T10:36:15;101916.72;;;12.53;100.00
71638;BME280;59485;43.542;-5.676;2023-02-22T10:38:42;101916.72;;;12.61;100.00
71638;BME280;59485;43.542;-5.676;2023-02-22T10:43:43;101903.97;;;12.68;100.00
71638;BME280;59485;43.542;-5.676;2023-02-22T10:46:13;101905.69;;;12.69;100.00
71638;BME280;59485;43.542;-5.676;2023-02-22T10:48:39;101907.56;;;12.77;100.00
71638;BME280;59485;43.542;-5.676;2023-02-22T10:51:07;101906.16;;;12.81;100.00
71638;BME280;59485;43.542;-5.676;2023-02-22T10:53:36;101907.53;;;12.85;100.00
71638;BME280;59485;43.542;-5.676;2023-02-22T10:56:17;101904.78;;;12.85;100.00
71638;BME280;59485;43.542;-5.676;2023-02-22T10:58:51;101911.63;;;12.89;100.00
71638;BME280;59485;43.542;-5.676;2023-02-22T11:01:34;101901.13;;;12.93;100.00
71638;BME280;59485;43.542;-5.676;2023-02-22T11:04:09;101903.38;;;12.89;100.00
71638;BME280;59485;43.542;-5.676;2023-02-22T11:06:36;101907.31;;;12.95;100.00
71638;BME280;59485;43.542;-5.676;2023-02-22T11:11:37;101908.47;;;13.00;100.00
71638;BME280;59485;43.542;-5.676;2023-02-22T11:14:03;101903.13;;;13.07;100.00
71638;BME280;59485;43.542;-5.676;2023-02-22T11:19:00;101908.97;;;13.12;100.00
71638;BME280;59485;43.542;-5.676;2023-02-22T11:21:26;101898.28;;;13.17;100.00
71638;BME280;59485;43.542;-5.676;2023-02-22T11:24:06;101901.19;;;13.24;100.00
71638;BME280;59485;43.542;-5.676;2023-02-22T11:26:40;101905.97;;;13.30;100.00
71638;BME280;59485;43.542;-5.676;2023-02-22T11:29:16;101909.06;;;13.27;100.00
71638;BME280;59485;43.542;-5.676;2023-02-22T11:31:43;101901.84;;;13.26;100.00
71638;BME280;59485;43.542;-5.676;2023-02-22T11:34:23;101903.41;;;13.28;100.00
71638;BME280;59485;43.542;-5.676;2023-02-22T11:36:49;101904.06;;;13.30;100.00
71638;BME280;59485;43.542;-5.676;2023-02-22T11:39:26;101906.66;;;13.32;100.00
71638;BME280;59485;43.542;-5.676;2023-02-22T11:41:53;101896.84;;;13.29;100.00
71638;BME280;59485;43.542;-5.676;2023-02-22T11:44:26;101900.63;;;13.28;100.00
71638;BME280;59485;43.542;-5.676;2023-02-22T11:46:52;101893.28;;;13.21;100.00
71638;BME280;59485;43.542;-5.676;2023-02-22T11:49:20;101896.03;;;13.21;100.00
71638;BME280;59485;43.542;-5.676;2023-02-22T11:59:29;101895.91;;;13.06;100.00
71638;BME280;59485;43.542;-5.676;2023-02-22T12:01:56;101898.84;;;13.04;100.00
71638;BME280;59485;43.542;-5.676;2023-02-22T12:22:41;101880.81;;;12.94;100.00
71638;BME280;59485;43.542;-5.676;2023-02-22T12:25:24;101882.03;;;12.91;100.00
71638;BME280;59485;43.542;-5.676;2023-02-22T12:27:57;101874.97;;;12.89;100.00
71638;BME280;59485;43.542;-5.676;2023-02-22T12:30:28;101873.81;;;12.83;100.00
71638;BME280;59485;43.542;-5.676;2023-02-22T12:32:59;101883.31;;;12.72;100.00
71638;BME280;59485;43.542;-5.676;2023-02-22T12:35:27;101879.91;;;12.70;100.00
71638;BME280;59485;43.542;-5.676;2023-02-22T12:40:31;101874.22;;;12.64;100.00
71638;BME280;59485;43.542;-5.676;2023-02-22T12:50:51;101888.59;;;12.11;100.00
71638;BME280;59485;43.542;-5.676;2023-02-22T12:53:21;101878.81;;;12.08;100.00
71638;BME280;59485;43.542;-5.676;2023-02-22T12:55:50;101875.91;;;12.01;100.00
71638;BME280;59485;43.542;-5.676;2023-02-22T13:05:42;101864.41;;;12.06;100.00
71638;BME280;59485;43.542;-5.676;2023-02-22T13:08:16;101864.03;;;12.09;100.00
71638;BME280;59485;43.542;-5.676;2023-02-22T13:18:18;101864.91;;;12.01;100.00
71638;BME280;59485;43.542;-5.676;2023-02-22T13:23:37;101854.59;;;12.03;100.00
71638;BME280;59485;43.542;-5.676;2023-02-22T13:26:15;101855.47;;;12.04;100.00
71638;BME280;59485;43.542;-5.676;2023-02-22T13:28:48;101852.19;;;11.92;100.00
71638;BME280;59485;43.542;-5.676;2023-02-22T13:46:46;101830.91;;;12.02;100.00
71638;BME280;59485;43.542;-5.676;2023-02-22T13:52:09;101836.56;;;12.01;100.00
71638;BME280;59485;43.542;-5.676;2023-02-22T13:54:48;101838.13;;;12.03;100.00
71638;BME280;59485;43.542;-5.676;2023-02-22T14:03:27;101827.47;;;11.92;100.00
71638;BME280;59485;43.542;-5.676;2023-02-22T14:05:35;101829.72;;;11.89;100.00
71638;BME280;59485;43.542;-5.676;2023-02-22T14:08:01;101828.69;;;11.90;100.00
71638;BME280;59485;43.542;-5.676;2023-02-22T14:10:37;101823.88;;;11.92;100.00
71638;BME280;59485;43.542;-5.676;2023-02-22T14:13:04;101820.47;;;11.90;100.00
71638;BME280;59485;43.542;-5.676;2023-02-22T14:15:29;101821.13;;;11.92;100.00
71638;BME280;59485;43.542;-5.676;2023-02-22T14:17:57;101814.44;;;11.86;100.00
71638;BME280;59485;43.542;-5.676;2023-02-22T14:22:54;101808.59;;;11.89;100.00
71638;BME280;59485;43.542;-5.676;2023-02-22T14:27:57;101811.50;;;11.96;100.00
71638;BME280;59485;43.542;-5.676;2023-02-22T14:30:24;101802.56;;;12.02;100.00
71638;BME280;59485;43.542;-5.676;2023-02-22T14:32:50;101794.47;;;12.09;100.00
71638;BME280;59485;43.542;-5.676;2023-02-22T14:35:16;101798.75;;;12.11;100.00
71638;BME280;59485;43.542;-5.676;2023-02-22T14:37:42;101799.59;;;12.20;100.00
71638;BME280;59485;43.542;-5.676;2023-02-22T14:40:26;101791.19;;;12.21;100.00
71638;BME280;59485;43.542;-5.676;2023-02-22T14:43:00;101789.28;;;12.22;100.00
71638;BME280;59485;43.542;-5.676;2023-02-22T14:45:28;101806.31;;;12.25;100.00
71638;BME280;59485;43.542;-5.676;2023-02-22T14:58:14;101816.34;;;10.37;100.00
71638;BME280;59485;43.542;-5.676;2023-02-22T15:00:44;101820.31;;;10.16;100.00
71638;BME280;59485;43.542;-5.676;2023-02-22T15:03:17;101829.50;;;10.07;100.00
71638;BME280;59485;43.542;-5.676;2023-02-22T15:05:43;101819.69;;;10.05;100.00
71638;BME280;59485;43.542;-5.676;2023-02-22T15:08:09;101847.97;;;10.05;100.00
71638;BME280;59485;43.542;-5.676;2023-02-22T15:10:38;101849.63;;;9.98;100.00
71638;BME280;59485;43.542;-5.676;2023-02-22T15:13:12;101860.28;;;10.01;100.00
71638;BME280;59485;43.542;-5.676;2023-02-22T15:15:46;101870.88;;;10.04;100.00
71638;BME280;59485;43.542;-5.676;2023-02-22T15:18:20;101863.75;;;10.11;100.00
71638;BME280;59485;43.542;-5.676;2023-02-22T15:20:49;101866.97;;;10.07;100.00
71638;BME280;59485;43.542;-5.676;2023-02-22T15:23:28;101871.13;;;10.11;100.00
71638;BME280;59485;43.542;-5.676;2023-02-22T15:25:57;101881.69;;;10.06;100.00
71638;BME280;59485;43.542;-5.676;2023-02-22T15:28:23;101880.06;;;9.95;100.00
71638;BME280;59485;43.542;-5.676;2023-02-22T15:30:51;101901.91;;;9.87;100.00
71638;BME280;59485;43.542;-5.676;2023-02-22T15:33:36;101883.38;;;9.81;100.00
71638;BME280;59485;43.542;-5.676;2023-02-22T15:36:02;101883.69;;;9.78;100.00
71638;BME280;59485;43.542;-5.676;2023-02-22T15:38:28;101902.34;;;9.74;100.00
71638;BME280;59485;43.542;-5.676;2023-02-22T15:41:01;101884.03;;;9.75;100.00
71638;BME280;59485;43.542;-5.676;2023-02-22T15:43:27;101902.50;;;9.73;100.00
71638;BME280;59485;43.542;-5.676;2023-02-22T15:45:53;101899.81;;;9.63;100.00
71638;BME280;59485;43.542;-5.676;2023-02-22T15:48:19;101930.25;;;9.60;100.00
71638;BME280;59485;43.542;-5.676;2023-02-22T15:51:04;101900.63;;;9.56;100.00
71638;BME280;59485;43.542;-5.676;2023-02-22T15:53:41;101907.09;;;9.55;100.00
71638;BME280;59485;43.542;-5.676;2023-02-22T15:56:12;101924.13;;;9.49;100.00
71638;BME280;59485;43.542;-5.676;2023-02-22T15:58:38;101942.28;;;9.50;100.00
71638;BME280;59485;43.542;-5.676;2023-02-22T16:01:11;101932.81;;;9.44;100.00
71638;BME280;59485;43.542;-5.676;2023-02-22T16:03:45;101913.97;;;9.41;100.00
71638;BME280;59485;43.542;-5.676;2023-02-22T16:06:31;101923.50;;;9.37;100.00
71638;BME280;59485;43.542;-5.676;2023-02-22T16:09:10;101926.97;;;9.39;100.00
71638;BME280;59485;43.542;-5.676;2023-02-22T16:11:43;101927.78;;;9.39;100.00
71638;BME280;59485;43.542;-5.676;2023-02-22T16:14:25;101932.44;;;9.39;100.00
71638;BME280;59485;43.542;-5.676;2023-02-22T16:17:09;101921.94;;;9.34;100.00
71638;BME280;59485;43.542;-5.676;2023-02-22T16:19:38;101931.31;;;9.32;100.00
71638;BME280;59485;43.542;-5.676;2023-02-22T16:22:05;101943.44;;;9.29;100.00
71638;BME280;59485;43.542;-5.676;2023-02-22T16:24:37;101934.72;;;9.16;100.00
71638;BME280;59485;43.542;-5.676;2023-02-22T16:27:14;101944.56;;;9.09;100.00
71638;BME280;59485;43.542;-5.676;2023-02-22T16:32:05;101950.06;;;8.99;100.00
71638;BME280;59485;43.542;-5.676;2023-02-22T16:34:30;101962.72;;;9.00;100.00
71638;BME280;59485;43.542;-5.676;2023-02-22T16:36:56;101958.41;;;8.98;100.00
71638;BME280;59485;43.542;-5.676;2023-02-22T16:39:25;101963.03;;;8.97;100.00
71638;BME280;59485;43.542;-5.676;2023-02-22T16:41:55;101972.09;;;8.98;100.00
71638;BME280;59485;43.542;-5.676;2023-02-22T16:44:22;101964.00;;;9.06;100.00
71638;BME280;59485;43.542;-5.676;2023-02-22T16:49:24;101974.22;;;9.04;100.00
71638;BME280;59485;43.542;-5.676;2023-02-22T16:51:50;101965.31;;;9.02;100.00
71638;BME280;59485;43.542;-5.676;2023-02-22T16:54:24;101970.94;;;9.00;100.00
71638;BME280;59485;43.542;-5.676;2023-02-22T16:56:50;101974.53;;;9.01;100.00
71638;BME280;59485;43.542;-5.676;2023-02-22T16:59:16;101975.84;;;8.97;100.00
71638;BME280;59485;43.542;-5.676;2023-02-22T17:01:41;101984.91;;;8.97;100.00
71638;BME280;59485;43.542;-5.676;2023-02-22T17:04:14;101987.50;;;8.99;100.00
71638;BME280;59485;43.542;-5.676;2023-02-22T17:06:40;102011.56;;;8.86;100.00
71638;BME280;59485;43.542;-5.676;2023-02-22T17:09:05;102003.81;;;8.81;100.00
71638;BME280;59485;43.542;-5.676;2023-02-22T17:11:31;102001.56;;;8.77;100.00
71638;BME280;59485;43.542;-5.676;2023-02-22T17:13:57;101996.38;;;8.74;100.00
71638;BME280;59485;43.542;-5.676;2023-02-22T17:16:22;102012.06;;;8.62;100.00
71638;BME280;59485;43.542;-5.676;2023-02-22T17:21:13;102008.50;;;8.52;100.00
71638;BME280;59485;43.542;-5.676;2023-02-22T17:23:40;102002.47;;;8.48;100.00
71638;BME280;59485;43.542;-5.676;2023-02-22T17:26:08;102018.84;;;8.58;100.00
71638;BME280;59485;43.542;-5.676;2023-02-22T17:28:33;101994.41;;;8.56;100.00
71638;BME280;59485;43.542;-5.676;2023-02-22T17:30:59;102012.06;;;8.62;100.00
71638;BME280;59485;43.542;-5.676;2023-02-22T17:33:25;102023.88;;;8.62;100.00
71638;BME280;59485;43.542;-5.676;2023-02-22T17:35:52;102013.78;;;8.63;100.00
71638;BME280;59485;43.542;-5.676;2023-02-22T17:38:18;102030.91;;;8.65;100.00
71638;BME280;59485;43.542;-5.676;2023-02-22T17:40:45;102031.94;;;8.45;100.00
71638;BME280;59485;43.542;-5.676;2023-02-22T17:43:16;102027.63;;;8.42;100.00
71638;BME280;59485;43.542;-5.676;2023-02-22T17:45:43;102026.94;;;8.40;100.00
71638;BME280;59485;43.542;-5.676;2023-02-22T17:48:08;102033.69;;;8.46;100.00
71638;BME280;59485;43.542;-5.676;2023-02-22T17:50:37;102023.47;;;8.38;100.00
71638;BME280;59485;43.542;-5.676;2023-02-22T17:53:03;102032.97;;;8.34;100.00
71638;BME280;59485;43.542;-5.676;2023-02-22T17:55:28;102038.44;;;8.34;100.00
71638;BME280;59485;43.542;-5.676;2023-02-22T17:57:54;102025.47;;;8.26;100.00
71638;BME280;59485;43.542;-5.676;2023-02-22T18:00:26;102025.19;;;8.29;100.00
71638;BME280;59485;43.542;-5.676;2023-02-22T18:03:00;102036.97;;;8.30;100.00
71638;BME280;59485;43.542;-5.676;2023-02-22T18:05:27;102043.59;;;8.27;100.00
71638;BME280;59485;43.542;-5.676;2023-02-22T18:07:58;102045.44;;;8.27;100.00
71638;BME280;59485;43.542;-5.676;2023-02-22T18:10:24;102043.59;;;8.27;100.00
71638;BME280;59485;43.542;-5.676;2023-02-22T18:12:51;102057.09;;;8.29;100.00
71638;BME280;59485;43.542;-5.676;2023-02-22T18:15:17;102049.50;;;8.33;100.00
71638;BME280;59485;43.542;-5.676;2023-02-22T18:17:43;102057.56;;;8.34;100.00
71638;BME280;59485;43.542;-5.676;2023-02-22T18:20:09;102057.56;;;8.34;100.00
71638;BME280;59485;43.542;-5.676;2023-02-22T18:23:01;102068.47;;;8.34;100.00
71638;BME280;59485;43.542;-5.676;2023-02-22T18:25:26;102055.81;;;8.33;100.00
71638;BME280;59485;43.542;-5.676;2023-02-22T18:27:52;102072.75;;;8.27;100.00
71638;BME280;59485;43.542;-5.676;2023-02-22T18:30:18;102066.72;;;8.23;100.00
71638;BME280;59485;43.542;-5.676;2023-02-22T18:32:44;102068.63;;;8.23;100.00
71638;BME280;59485;43.542;-5.676;2023-02-22T18:35:10;102065.16;;;8.21;100.00
71638;BME280;59485;43.542;-5.676;2023-02-22T18:37:35;102064.16;;;8.22;100.00
71638;BME280;59485;43.542;-5.676;2023-02-22T18:40:00;102071.47;;;8.21;100.00
71638;BME280;59485;43.542;-5.676;2023-02-22T18:42:26;102066.88;;;8.22;100.00
71638;BME280;59485;43.542;-5.676;2023-02-22T18:44:52;102068.28;;;8.16;100.00
71638;BME280;59485;43.542;-5.676;2023-02-22T18:47:20;102076.81;;;8.13;100.00
71638;BME280;59485;43.542;-5.676;2023-02-22T18:49:46;102078.81;;;8.11;100.00
71638;BME280;59485;43.542;-5.676;2023-02-22T18:52:17;102078.06;;;8.09;100.00
71638;BME280;59485;43.542;-5.676;2023-02-22T18:54:50;102069.88;;;8.09;100.00
71638;BME280;59485;43.542;-5.676;2023-02-22T18:57:15;102073.63;;;8.08;100.00
71638;BME280;59485;43.542;-5.676;2023-02-22T18:59:41;102069.28;;;8.06;100.00
71638;BME280;59485;43.542;-5.676;2023-02-22T19:04:37;102075.78;;;8.05;100.00
71638;BME280;59485;43.542;-5.676;2023-02-22T19:07:03;102078.06;;;8.09;100.00
71638;BME280;59485;43.542;-5.676;2023-02-22T19:09:29;102079.34;;;8.05;100.00